createdAt,value
2023-02-11T00:01:08.488Z,99394.75
2023-02-11T00:03:38.911Z,99395.00
2023-02-11T00:06:10.336Z,99397.56
2023-02-11T00:08:38.423Z,99389.38
2023-02-11T00:11:06.950Z,99382.38
2023-02-11T00:13:35.022Z,99384.03
2023-02-11T00:16:07.935Z,99389.34
2023-02-11T00:18:37.759Z,99395.88
2023-02-11T00:21:10.503Z,99401.84
2023-02-11T00:23:38.771Z,99387.44
2023-02-11T00:26:12.378Z,99384.91
2023-02-11T00:28:42.057Z,99376.06
2023-02-11T00:31:10.184Z,99368.94
2023-02-11T00:33:38.299Z,99360.88
2023-02-11T00:36:06.697Z,99365.16
2023-02-11T00:38:37.546Z,99359.41
2023-02-11T00:41:05.752Z,99365.34
2023-02-11T00:43:34.038Z,99364.28
2023-02-11T00:46:02.099Z,99363.53
2023-02-11T00:48:30.544Z,99374.03
2023-02-11T00:50:58.620Z,99368.34
2023-02-11T00:53:26.645Z,99366.25
2023-02-11T00:55:56.110Z,99360.81
2023-02-11T00:58:24.188Z,99364.03
2023-02-11T01:00:58.532Z,99361.63
2023-02-11T01:03:26.656Z,99366.13
2023-02-11T01:05:54.675Z,99368.88
2023-02-11T01:08:22.795Z,99372.84
2023-02-11T01:10:57.208Z,99362.19
2023-02-11T01:13:25.342Z,99371.72
2023-02-11T01:15:53.705Z,99354.75
2023-02-11T01:18:21.874Z,99353.53
2023-02-11T01:20:50.083Z,99358.88
2023-02-11T01:23:18.261Z,99353.66
2023-02-11T01:25:46.660Z,99353.97
2023-02-11T01:28:19.163Z,99350.09
2023-02-11T01:30:47.837Z,99354.31
2023-02-11T01:33:16.141Z,99355.09
2023-02-11T01:35:44.428Z,99354.38
2023-02-11T01:38:16.904Z,99360.16
2023-02-11T01:40:49.037Z,99357.97
2023-02-11T01:43:18.695Z,99357.75
2023-02-11T01:46:01.326Z,99356.91
2023-02-11T01:48:31.021Z,99346.50
2023-02-11T01:51:03.084Z,99344.81
2023-02-11T01:53:48.821Z,99359.38
2023-02-11T01:56:34.549Z,99354.50
2023-02-11T01:59:07.394Z,99363.22
2023-02-11T02:01:38.052Z,99371.38
2023-02-11T02:04:06.350Z,99371.25
2023-02-11T02:06:35.917Z,99370.66
2023-02-11T02:09:06.676Z,99373.03
2023-02-11T02:11:34.737Z,99371.13
2023-02-11T02:14:04.429Z,99353.34
2023-02-11T02:16:34.058Z,99338.16
2023-02-11T02:19:20.514Z,99334.94
2023-02-11T02:22:21.916Z,99335.03
2023-02-11T02:25:01.303Z,99329.75
2023-02-11T02:27:35.830Z,99332.28
2023-02-11T02:30:33.666Z,99330.91
2023-02-11T02:33:21.616Z,99332.38
2023-02-11T02:35:55.365Z,99320.88
2023-02-11T02:38:25.544Z,99318.44
2023-02-11T02:40:56.315Z,99324.78
2023-02-11T02:43:24.366Z,99316.47
2023-02-11T02:45:52.673Z,99316.31
2023-02-11T02:48:32.071Z,99318.88
2023-02-11T02:51:04.898Z,99311.88
2023-02-11T02:53:37.072Z,99312.63
2023-02-11T02:56:06.451Z,99313.50
2023-02-11T02:59:05.236Z,99300.84
2023-02-11T03:01:37.442Z,99312.63
2023-02-11T03:04:12.554Z,99317.13
2023-02-11T03:06:45.233Z,99308.22
2023-02-11T03:09:14.941Z,99319.72
2023-02-11T03:11:42.962Z,99325.91
2023-02-11T03:14:12.902Z,99320.38
2023-02-11T03:16:41.019Z,99318.16
2023-02-11T03:19:12.702Z,99308.78
2023-02-11T03:21:41.502Z,99316.81
2023-02-11T03:24:11.568Z,99309.59
2023-02-11T03:26:40.304Z,99309.38
2023-02-11T03:29:10.787Z,99311.06
2023-02-11T03:31:41.786Z,99309.44
2023-02-11T03:34:14.585Z,99322.72
2023-02-11T03:36:45.993Z,99316.69
2023-02-11T03:39:14.585Z,99325.16
2023-02-11T03:41:43.303Z,99332.50
2023-02-11T03:44:11.590Z,99335.06
2023-02-11T03:46:40.156Z,99325.25
2023-02-11T03:49:11.680Z,99318.63
2023-02-11T03:51:39.814Z,99322.56
2023-02-11T03:54:11.039Z,99327.38
2023-02-11T03:56:41.162Z,99335.16
2023-02-11T03:59:09.455Z,99344.41
2023-02-11T04:01:37.462Z,99327.16
2023-02-11T04:04:06.061Z,99336.16
2023-02-11T04:06:35.533Z,99331.00
2023-02-11T04:09:03.780Z,99329.53
2023-02-11T04:11:32.360Z,99317.72
2023-02-11T04:14:00.989Z,99305.81
2023-02-11T04:16:30.232Z,99309.09
2023-02-11T04:18:58.826Z,99303.97
2023-02-11T04:21:26.937Z,99304.13
2023-02-11T04:23:56.381Z,99312.03
2023-02-11T04:26:24.749Z,99307.22
2023-02-11T04:28:52.810Z,99316.13
2023-02-11T04:31:20.966Z,99312.97
2023-02-11T04:33:49.281Z,99309.28
2023-02-11T04:36:17.323Z,99301.69
2023-02-11T04:38:45.413Z,99316.53
2023-02-11T04:41:14.894Z,99304.44
2023-02-11T04:43:42.983Z,99296.75
2023-02-11T04:46:11.114Z,99320.91
2023-02-11T04:48:39.279Z,99324.41
2023-02-11T04:51:07.659Z,99318.31
2023-02-11T04:53:35.903Z,99330.16
2023-02-11T04:56:04.068Z,99321.75
2023-02-11T04:58:33.699Z,99327.88
2023-02-11T05:01:07.671Z,99326.94
2023-02-11T05:03:35.778Z,99323.88
2023-02-11T05:06:03.958Z,99318.31
2023-02-11T05:08:32.500Z,99316.44
2023-02-11T05:11:02.166Z,99314.59
2023-02-11T05:13:30.382Z,99313.56
2023-02-11T05:15:59.821Z,99308.66
2023-02-11T05:18:27.905Z,99300.78
2023-02-11T05:20:55.945Z,99307.97
2023-02-11T05:23:24.066Z,99309.22
2023-02-11T05:25:52.378Z,99313.56
2023-02-11T05:28:20.564Z,99316.47
2023-02-11T05:30:48.738Z,99317.31
2023-02-11T05:33:18.293Z,99317.94
2023-02-11T05:35:46.296Z,99315.75
2023-02-11T05:38:14.380Z,99316.63
2023-02-11T05:40:42.390Z,99315.66
2023-02-11T05:43:10.442Z,99308.66
2023-02-11T05:45:38.426Z,99306.81
2023-02-11T05:48:07.095Z,99298.34
2023-02-11T05:50:36.680Z,99302.44
2023-02-11T05:53:05.695Z,99313.22
2023-02-11T05:55:33.920Z,99303.88
2023-02-11T05:58:02.358Z,99306.94
2023-02-11T06:00:30.447Z,99301.13
2023-02-11T06:02:58.478Z,99308.88
2023-02-11T06:05:26.688Z,99308.56
2023-02-11T06:07:56.329Z,99310.25
2023-02-11T06:10:24.441Z,99307.56
2023-02-11T06:12:52.425Z,99311.59
2023-02-11T06:15:20.588Z,99307.47
2023-02-11T06:17:48.644Z,99307.47
2023-02-11T06:20:17.600Z,99311.16
2023-02-11T06:22:45.680Z,99311.81
2023-02-11T06:25:15.135Z,99310.06
2023-02-11T06:27:43.527Z,99310.91
2023-02-11T06:30:12.675Z,99304.97
2023-02-11T06:32:45.391Z,99311.50
2023-02-11T06:35:14.297Z,99309.66
2023-02-11T06:37:42.372Z,99313.88
2023-02-11T06:40:11.058Z,99305.25
2023-02-11T06:42:40.551Z,99302.00
2023-02-11T06:45:13.303Z,99310.94
2023-02-11T06:47:41.673Z,99311.94
2023-02-11T06:50:10.473Z,99313.09
2023-02-11T06:52:38.613Z,99315.44
2023-02-11T06:55:07.263Z,99315.59
2023-02-11T06:57:38.119Z,99315.56
2023-02-11T07:00:09.034Z,99325.88
2023-02-11T07:02:37.547Z,99318.91
2023-02-11T07:05:07.066Z,99325.03
2023-02-11T07:07:35.204Z,99329.38
2023-02-11T07:10:04.720Z,99341.16
2023-02-11T07:12:33.274Z,99341.84
2023-02-11T07:15:01.656Z,99345.78
2023-02-11T07:17:31.310Z,99349.03
2023-02-11T07:19:59.293Z,99348.72
2023-02-11T07:22:27.303Z,99348.34
2023-02-11T07:24:55.333Z,99350.09
2023-02-11T07:27:23.368Z,99358.22
2023-02-11T07:29:51.376Z,99358.88
2023-02-11T07:32:19.500Z,99349.53
2023-02-11T07:34:49.612Z,99357.03
2023-02-11T07:37:18.347Z,99350.59
2023-02-11T07:39:46.386Z,99353.97
2023-02-11T07:42:14.396Z,99353.16
2023-02-11T07:44:42.835Z,99363.41
2023-02-11T07:47:10.788Z,99369.38
2023-02-11T07:49:38.883Z,99376.09
2023-02-11T07:52:08.807Z,99381.59
2023-02-11T07:54:36.863Z,99382.19
2023-02-11T07:57:05.100Z,99377.63
2023-02-11T07:59:33.870Z,99378.94
2023-02-11T08:02:01.986Z,99381.66
2023-02-11T08:04:30.170Z,99381.81
2023-02-11T08:06:59.273Z,99382.00
2023-02-11T08:09:28.906Z,99379.16
2023-02-11T08:11:56.961Z,99369.13
2023-02-11T08:14:25.316Z,99373.78
2023-02-11T08:16:54.666Z,99379.69
2023-02-11T08:19:22.759Z,99375.13
2023-02-11T08:21:51.232Z,99382.00
2023-02-11T08:24:19.387Z,99387.47
2023-02-11T08:26:49.599Z,99386.16
2023-02-11T08:29:18.272Z,99389.94
2023-02-11T08:31:47.202Z,99391.13
2023-02-11T08:34:18.449Z,99394.97
2023-02-11T08:36:47.561Z,99394.50
2023-02-11T08:39:19.697Z,99414.22
2023-02-11T08:41:50.059Z,99402.59
2023-02-11T08:44:18.412Z,99408.91
2023-02-11T08:46:46.853Z,99418.25
2023-02-11T08:49:15.240Z,99418.91
2023-02-11T08:51:43.943Z,99428.13
2023-02-11T08:54:12.124Z,99422.22
2023-02-11T08:56:42.641Z,99433.28
2023-02-11T08:59:12.858Z,99440.34
2023-02-11T09:01:41.014Z,99440.50
2023-02-11T09:04:09.143Z,99440.00
2023-02-11T09:06:37.516Z,99447.56
2023-02-11T09:09:05.661Z,99448.84
2023-02-11T09:11:35.321Z,99449.94
2023-02-11T09:14:04.646Z,99453.63
2023-02-11T09:16:35.018Z,99443.91
2023-02-11T09:19:04.454Z,99455.38
2023-02-11T09:21:35.939Z,99453.34
2023-02-11T09:24:09.746Z,99457.44
2023-02-11T09:26:40.887Z,99463.09
2023-02-11T09:29:08.912Z,99465.47
2023-02-11T09:31:38.933Z,99469.97
2023-02-11T09:34:07.228Z,99473.53
2023-02-11T09:36:37.483Z,99472.16
2023-02-11T09:39:07.124Z,99469.13
2023-02-11T09:41:40.749Z,99465.66
2023-02-11T09:44:10.655Z,99464.09
2023-02-11T09:46:42.289Z,99466.84
2023-02-11T09:49:13.205Z,99472.63
2023-02-11T09:51:42.452Z,99470.69
2023-02-11T09:54:14.440Z,99478.78
2023-02-11T09:56:42.807Z,99480.03
2023-02-11T09:59:12.208Z,99476.50
2023-02-11T10:01:43.340Z,99481.50
2023-02-11T10:04:15.354Z,99485.59
2023-02-11T10:06:45.099Z,99491.22
2023-02-11T10:09:48.680Z,99487.44
2023-02-11T10:12:23.950Z,99496.59
2023-02-11T10:15:02.920Z,99486.19
2023-02-11T10:17:36.417Z,99491.00
2023-02-11T10:20:16.741Z,99490.91
2023-02-11T10:22:46.696Z,99497.50
2023-02-11T10:25:20.909Z,99500.66
2023-02-11T10:27:49.079Z,99496.19
2023-02-11T10:30:22.347Z,99510.84
2023-02-11T10:32:53.675Z,99505.38
2023-02-11T10:35:23.249Z,99508.28
2023-02-11T10:37:54.164Z,99510.38
2023-02-11T10:40:23.277Z,99510.38
2023-02-11T10:42:55.372Z,99505.19
2023-02-11T10:45:27.243Z,99505.72
2023-02-11T10:47:57.198Z,99509.84
2023-02-11T10:50:26.301Z,99513.31
2023-02-11T10:52:54.376Z,99506.59
2023-02-11T10:55:24.684Z,99501.75
2023-02-11T10:57:56.588Z,99503.34
2023-02-11T11:00:38.037Z,99494.69
2023-02-11T11:03:16.307Z,99507.66
2023-02-11T11:05:48.156Z,99504.47
2023-02-11T11:08:17.986Z,99496.97
2023-02-11T11:10:47.255Z,99493.06
2023-02-11T11:13:28.956Z,99487.19
2023-02-11T11:16:25.511Z,99492.59
2023-02-11T11:19:06.620Z,99494.00
2023-02-11T11:21:37.174Z,99490.88
2023-02-11T11:24:07.149Z,99496.75
2023-02-11T11:26:41.663Z,99491.38
2023-02-11T11:29:11.732Z,99493.94
2023-02-11T11:31:48.387Z,99490.09
2023-02-11T11:34:22.724Z,99494.63
2023-02-11T11:36:51.302Z,99501.19
2023-02-11T11:39:22.282Z,99496.19
2023-02-11T11:41:54.851Z,99496.59
2023-02-11T11:44:28.968Z,99499.72
2023-02-11T11:47:22.743Z,99505.63
2023-02-11T11:49:57.789Z,99499.78
2023-02-11T11:52:35.583Z,99493.97
2023-02-11T11:55:06.616Z,99494.91
2023-02-11T11:57:38.641Z,99500.03
2023-02-11T12:00:07.983Z,99482.00
2023-02-11T12:02:52.618Z,99496.34
2023-02-11T12:05:25.066Z,99494.00
2023-02-11T12:07:59.182Z,99489.44
2023-02-11T12:10:36.697Z,99493.88
2023-02-11T12:13:11.244Z,99491.19
2023-02-11T12:15:42.593Z,99481.50
2023-02-11T12:18:23.452Z,99485.53
2023-02-11T12:21:00.759Z,99482.75
2023-02-11T12:23:35.879Z,99476.28
2023-02-11T12:26:13.075Z,99477.00
2023-02-11T12:28:44.074Z,99483.63
2023-02-11T12:31:29.304Z,99487.97
2023-02-11T12:34:20.311Z,99481.66
2023-02-11T12:36:57.884Z,99476.28
2023-02-11T12:39:38.418Z,99481.16
2023-02-11T12:42:49.400Z,99468.09
2023-02-11T12:45:27.494Z,99469.72
2023-02-11T12:48:08.699Z,99475.34
2023-02-11T12:50:39.624Z,99472.63
2023-02-11T12:53:19.206Z,99469.41
2023-02-11T12:55:48.827Z,99479.97
2023-02-11T12:58:20.022Z,99478.94
2023-02-11T13:00:50.125Z,99475.91
2023-02-11T13:03:21.076Z,99477.44
2023-02-11T13:05:50.866Z,99476.47
2023-02-11T13:08:22.126Z,99466.41
2023-02-11T13:10:52.196Z,99470.28
2023-02-11T13:13:22.576Z,99472.50
2023-02-11T13:15:52.870Z,99480.66
2023-02-11T13:18:44.263Z,99477.44
2023-02-11T13:21:31.146Z,99474.72
2023-02-11T13:24:05.682Z,99477.53
2023-02-11T13:26:38.763Z,99470.50
2023-02-11T13:29:14.761Z,99464.91
2023-02-11T13:31:43.010Z,99454.84
2023-02-11T13:34:26.116Z,99457.84
2023-02-11T13:36:57.777Z,99458.00
2023-02-11T13:39:27.327Z,99462.19
2023-02-11T13:42:05.234Z,99461.56
2023-02-11T13:44:34.843Z,99469.25
2023-02-11T13:47:04.760Z,99475.75
2023-02-11T13:49:38.338Z,99472.22
2023-02-11T13:52:07.765Z,99473.44
2023-02-11T13:54:39.238Z,99477.38
2023-02-11T13:57:31.152Z,99471.63
2023-02-11T13:59:59.290Z,99468.03
2023-02-11T14:02:48.141Z,99481.06
2023-02-11T14:05:47.678Z,99483.97
2023-02-11T14:08:42.964Z,99482.03
2023-02-11T14:11:46.798Z,99484.81
2023-02-11T14:14:24.056Z,99479.38
2023-02-11T14:17:34.576Z,99477.09
2023-02-11T14:20:05.579Z,99478.00
2023-02-11T14:22:42.507Z,99486.63
2023-02-11T14:25:19.215Z,99478.63
2023-02-11T14:27:51.617Z,99482.09
2023-02-11T14:30:36.191Z,99484.81
2023-02-11T14:33:12.497Z,99485.56
2023-02-11T14:35:42.393Z,99470.44
2023-02-11T14:38:15.168Z,99474.78
2023-02-11T14:40:47.638Z,99480.69
2023-02-11T14:43:19.408Z,99484.19
2023-02-11T14:45:52.269Z,99478.56
2023-02-11T14:48:21.333Z,99478.88
2023-02-11T14:50:51.718Z,99481.91
2023-02-11T14:53:21.564Z,99489.00
2023-02-11T14:55:50.879Z,99481.44
2023-02-11T14:58:23.215Z,99477.13
2023-02-11T15:01:04.482Z,99489.81
2023-02-11T15:03:36.872Z,99495.66
2023-02-11T15:06:07.245Z,99499.38
2023-02-11T15:08:36.600Z,99495.84
2023-02-11T15:11:05.364Z,99501.31
2023-02-11T15:13:35.235Z,99501.25
2023-02-11T15:16:07.939Z,99505.91
2023-02-11T15:18:38.824Z,99502.31
2023-02-11T15:21:07.123Z,99508.97
2023-02-11T15:23:35.526Z,99510.78
2023-02-11T15:26:05.747Z,99514.13
2023-02-11T15:28:38.355Z,99516.09
2023-02-11T15:31:07.190Z,99508.91
2023-02-11T15:33:35.223Z,99517.34
2023-02-11T15:36:03.586Z,99503.63
2023-02-11T15:38:31.691Z,99510.84
2023-02-11T15:41:00.883Z,99516.06
2023-02-11T15:43:43.618Z,99515.50
2023-02-11T15:46:11.866Z,99508.44
2023-02-11T15:48:43.559Z,99511.59
2023-02-11T15:51:15.063Z,99511.41
2023-02-11T15:53:43.551Z,99521.31
2023-02-11T15:56:13.434Z,99516.25
2023-02-11T15:58:44.382Z,99519.47
2023-02-11T16:01:12.835Z,99513.63
2023-02-11T16:03:41.821Z,99514.63
2023-02-11T16:06:20.376Z,99519.22
2023-02-11T16:09:01.691Z,99517.41
2023-02-11T16:11:33.018Z,99519.34
2023-02-11T16:14:05.170Z,99521.38
2023-02-11T16:16:35.425Z,99524.44
2023-02-11T16:19:06.883Z,99521.50
2023-02-11T16:21:42.237Z,99514.63
2023-02-11T16:24:19.251Z,99512.41
2023-02-11T16:26:48.998Z,99517.72
2023-02-11T16:29:20.313Z,99522.38
2023-02-11T16:31:48.922Z,99521.94
2023-02-11T16:34:18.143Z,99523.63
2023-02-11T16:36:46.319Z,99531.44
2023-02-11T16:39:14.378Z,99532.47
2023-02-11T16:41:42.387Z,99533.41
2023-02-11T16:44:10.400Z,99537.91
2023-02-11T16:46:40.151Z,99531.06
2023-02-11T16:49:22.972Z,99533.56
2023-02-11T16:52:02.202Z,99536.25
2023-02-11T16:54:30.620Z,99532.97
2023-02-11T16:56:59.115Z,99540.78
2023-02-11T16:59:28.333Z,99540.09
2023-02-11T17:01:58.233Z,99548.03
2023-02-11T17:04:28.251Z,99543.88
2023-02-11T17:06:58.333Z,99546.19
2023-02-11T17:09:30.575Z,99549.81
2023-02-11T17:11:59.257Z,99549.09
2023-02-11T17:14:27.595Z,99556.31
2023-02-11T17:16:57.789Z,99549.03
2023-02-11T17:19:25.797Z,99547.81
2023-02-11T17:21:53.806Z,99549.47
2023-02-11T17:24:21.913Z,99555.72
2023-02-11T17:26:50.244Z,99550.22
2023-02-11T17:29:19.560Z,99551.84
2023-02-11T17:31:47.666Z,99546.28
2023-02-11T17:34:17.799Z,99547.88
2023-02-11T17:36:46.348Z,99545.81
2023-02-11T17:39:14.558Z,99557.81
2023-02-11T17:41:42.775Z,99555.16
2023-02-11T17:44:12.448Z,99559.25
2023-02-11T17:46:40.632Z,99556.97
2023-02-11T17:49:08.714Z,99549.31
2023-02-11T17:51:38.911Z,99553.72
2023-02-11T17:54:07.993Z,99552.22
2023-02-11T17:56:37.000Z,99560.75
2023-02-11T17:59:05.097Z,99555.31
2023-02-11T18:01:36.031Z,99561.31
2023-02-11T18:04:04.318Z,99565.41
2023-02-11T18:06:33.901Z,99573.41
2023-02-11T18:09:04.447Z,99572.44
2023-02-11T18:11:33.722Z,99590.38
2023-02-11T18:14:01.802Z,99587.84
2023-02-11T18:16:39.658Z,99592.72
2023-02-11T18:19:36.772Z,99600.31
2023-02-11T18:22:04.964Z,99592.63
2023-02-11T18:24:35.461Z,99600.09
2023-02-11T18:27:03.686Z,99602.16
2023-02-11T18:29:32.198Z,99607.06
2023-02-11T18:32:00.293Z,99609.28
2023-02-11T18:34:28.668Z,99611.44
2023-02-11T18:36:56.730Z,99607.31
2023-02-11T18:39:26.498Z,99615.50
2023-02-11T18:41:58.915Z,99607.88
2023-02-11T18:44:27.165Z,99605.53
2023-02-11T18:46:55.594Z,99601.75
2023-02-11T18:49:23.555Z,99600.97
2023-02-11T18:51:51.618Z,99606.00
2023-02-11T18:54:19.750Z,99612.19
2023-02-11T18:56:47.860Z,99612.88
2023-02-11T18:59:17.338Z,99620.75
2023-02-11T19:01:47.015Z,99614.31
2023-02-11T19:04:19.706Z,99615.94
2023-02-11T19:06:48.660Z,99611.34
2023-02-11T19:09:18.051Z,99621.94
2023-02-11T19:11:49.809Z,99622.38
2023-02-11T19:14:21.542Z,99627.56
2023-02-11T19:16:50.740Z,99631.00
2023-02-11T19:19:19.195Z,99631.53
2023-02-11T19:21:47.683Z,99638.59
2023-02-11T19:24:18.891Z,99631.63
2023-02-11T19:26:47.052Z,99636.50
2023-02-11T19:29:15.001Z,99638.59
2023-02-11T19:31:44.761Z,99638.75
2023-02-11T19:34:14.608Z,99640.59
2023-02-11T19:36:42.773Z,99637.75
2023-02-11T19:39:10.819Z,99636.41
2023-02-11T19:41:39.500Z,99635.41
2023-02-11T19:44:07.853Z,99638.34
2023-02-11T19:46:37.237Z,99641.97
2023-02-11T19:49:07.077Z,99640.03
2023-02-11T19:51:36.975Z,99638.50
2023-02-11T19:54:05.387Z,99635.88
2023-02-11T19:56:33.535Z,99642.91
2023-02-11T19:59:03.301Z,99651.41
2023-02-11T20:01:31.502Z,99649.78
2023-02-11T20:04:00.223Z,99653.28
2023-02-11T20:06:30.372Z,99656.66
2023-02-11T20:08:59.493Z,99665.00
2023-02-11T20:11:28.202Z,99664.56
2023-02-11T20:13:56.366Z,99667.47
2023-02-11T20:16:33.952Z,99665.53
2023-02-11T20:19:17.960Z,99663.69
2023-02-11T20:21:48.597Z,99670.00
2023-02-11T20:24:17.041Z,99670.25
2023-02-11T20:26:46.979Z,99663.69
2023-02-11T20:29:15.390Z,99668.50
2023-02-11T20:31:44.044Z,99668.03
2023-02-11T20:34:12.205Z,99670.25
2023-02-11T20:36:40.725Z,99663.72
2023-02-11T20:39:11.528Z,99667.94
2023-02-11T20:41:40.828Z,99669.16
2023-02-11T20:44:09.537Z,99669.50
2023-02-11T20:46:38.709Z,99680.19
2023-02-11T20:49:08.749Z,99680.44
2023-02-11T20:51:37.442Z,99686.66
2023-02-11T20:54:06.482Z,99671.25
2023-02-11T20:56:37.313Z,99678.44
2023-02-11T20:59:07.643Z,99672.25
2023-02-11T21:01:37.441Z,99677.09
2023-02-11T21:04:07.045Z,99670.69
2023-02-11T21:06:36.661Z,99670.59
2023-02-11T21:09:04.915Z,99672.44
2023-02-11T21:11:33.099Z,99671.38
2023-02-11T21:14:04.302Z,99682.50
2023-02-11T21:16:32.743Z,99674.69
2023-02-11T21:19:03.070Z,99686.41
2023-02-11T21:21:31.209Z,99687.31
2023-02-11T21:23:59.687Z,99684.38
2023-02-11T21:26:27.940Z,99693.78
2023-02-11T21:29:05.587Z,99691.69
2023-02-11T21:31:34.666Z,99695.94
2023-02-11T21:34:05.609Z,99689.16
2023-02-11T21:36:33.792Z,99695.88
2023-02-11T21:39:03.867Z,99691.84
2023-02-11T21:41:32.195Z,99693.47
2023-02-11T21:44:00.281Z,99693.72
2023-02-11T21:46:29.741Z,99690.13
2023-02-11T21:48:58.359Z,99696.13
2023-02-11T21:51:26.674Z,99695.72
2023-02-11T21:53:55.275Z,99691.56
2023-02-11T21:56:23.369Z,99705.16
2023-02-11T21:58:53.304Z,99695.09
2023-02-11T22:01:22.233Z,99690.84
2023-02-11T22:03:54.332Z,99689.13
2023-02-11T22:06:23.019Z,99685.72
2023-02-11T22:08:51.207Z,99691.41
2023-02-11T22:11:19.689Z,99688.94
2023-02-11T22:13:48.019Z,99687.09
2023-02-11T22:16:17.254Z,99690.25
2023-02-11T22:18:46.511Z,99683.66
2023-02-11T22:21:17.089Z,99687.88
2023-02-11T22:23:45.162Z,99686.78
2023-02-11T22:26:14.680Z,99684.44
2023-02-11T22:28:43.260Z,99675.25
2023-02-11T22:31:12.657Z,99684.19
2023-02-11T22:33:40.882Z,99690.25
2023-02-11T22:36:10.334Z,99689.00
2023-02-11T22:38:40.110Z,99688.34
2023-02-11T22:41:09.453Z,99679.94
2023-02-11T22:43:37.703Z,99675.78
2023-02-11T22:46:06.896Z,99677.47
2023-02-11T22:48:35.131Z,99692.84
2023-02-11T22:51:07.103Z,99694.34
2023-02-11T22:53:35.297Z,99702.94
2023-02-11T22:56:05.716Z,99706.00
2023-02-11T22:58:36.233Z,99701.94
2023-02-11T23:01:05.044Z,99708.88
2023-02-11T23:03:33.200Z,99719.88
2023-02-11T23:06:01.391Z,99729.25
2023-02-11T23:08:29.403Z,99732.47
2023-02-11T23:10:58.014Z,99731.69
2023-02-11T23:13:27.440Z,99730.91
2023-02-11T23:15:55.855Z,99734.34
2023-02-11T23:18:23.966Z,99737.78
2023-02-11T23:20:52.553Z,99745.00
2023-02-11T23:23:20.591Z,99741.63
2023-02-11T23:25:49.512Z,99732.78
2023-02-11T23:28:18.658Z,99726.03
2023-02-11T23:30:48.676Z,99729.34
2023-02-11T23:33:16.766Z,99719.59
2023-02-11T23:35:44.784Z,99725.63
2023-02-11T23:38:12.883Z,99726.66
2023-02-11T23:40:43.944Z,99726.88
2023-02-11T23:43:11.982Z,99733.28
2023-02-11T23:45:40.049Z,99729.16
2023-02-11T23:48:09.561Z,99733.06
2023-02-11T23:50:39.624Z,99733.78
2023-02-11T23:53:07.729Z,99746.34
2023-02-11T23:55:39.955Z,99737.63
2023-02-11T23:58:07.992Z,99745.94
